METAR Formatted Surface Weather Observation
Issued by NWS

Current Version | Previous Version | Text Only | Print | Product List | Glossary On
Versions: 1 2
000
SAUS46 KSTO 211022 COR
MTRBLU
SPECI KBLU 211016Z AUTO 15005KT 1 3/4SM BR BKN002 OVC009 04/04 A2985
RMK AO2 VIS 3/4V5 T00440044 TSNO



USA.gov is the U.S. government's official web portal to all federal, state and local government web resources and services.